sensor_id;sensor_type;location;lat;lon;timestamp;temperature;humidity
4376;DHT22;2202;50.866;12.750;2023-01-19T00:01:00;-4.60;96.10
4376;DHT22;2202;50.866;12.750;2023-01-19T00:03:27;-4.50;96.30
4376;DHT22;2202;50.866;12.750;2023-01-19T00:05:54;-4.50;96.40
4376;DHT22;2202;50.866;12.750;2023-01-19T00:08:22;-4.50;96.40
4376;DHT22;2202;50.866;12.750;2023-01-19T00:10:49;-4.50;96.40
4376;DHT22;2202;50.866;12.750;2023-01-19T00:13:16;-4.50;96.60
4376;DHT22;2202;50.866;12.750;2023-01-19T00:15:43;-4.50;97.00
4376;DHT22;2202;50.866;12.750;2023-01-19T00:18:10;-4.40;97.10
4376;DHT22;2202;50.866;12.750;2023-01-19T00:20:37;-4.40;97.10
4376;DHT22;2202;50.866;12.750;2023-01-19T00:23:04;-4.30;97.10
4376;DHT22;2202;50.866;12.750;2023-01-19T00:25:33;-4.20;97.00
4376;DHT22;2202;50.866;12.750;2023-01-19T00:28:00;-4.10;96.90
4376;DHT22;2202;50.866;12.750;2023-01-19T00:30:27;-4.00;96.70
4376;DHT22;2202;50.866;12.750;2023-01-19T00:32:54;-3.90;96.50
4376;DHT22;2202;50.866;12.750;2023-01-19T00:35:21;-3.90;96.20
4376;DHT22;2202;50.866;12.750;2023-01-19T00:37:48;-3.90;96.30
4376;DHT22;2202;50.866;12.750;2023-01-19T00:40:15;-4.10;95.70
4376;DHT22;2202;50.866;12.750;2023-01-19T00:42:44;-4.20;95.60
4376;DHT22;2202;50.866;12.750;2023-01-19T00:45:14;-4.30;95.60
4376;DHT22;2202;50.866;12.750;2023-01-19T00:47:41;-4.30;95.80
4376;DHT22;2202;50.866;12.750;2023-01-19T00:50:10;-4.30;95.80
4376;DHT22;2202;50.866;12.750;2023-01-19T00:52:37;-4.40;95.60
4376;DHT22;2202;50.866;12.750;2023-01-19T00:55:05;-4.40;95.80
4376;DHT22;2202;50.866;12.750;2023-01-19T00:57:32;-4.40;95.90
4376;DHT22;2202;50.866;12.750;2023-01-19T01:00:00;-4.30;95.80
4376;DHT22;2202;50.866;12.750;2023-01-19T01:02:30;-4.20;95.80
4376;DHT22;2202;50.866;12.750;2023-01-19T01:08:25;-4.10;95.40
4376;DHT22;2202;50.866;12.750;2023-01-19T01:10:52;-4.30;94.60
4376;DHT22;2202;50.866;12.750;2023-01-19T01:13:20;-4.40;94.70
4376;DHT22;2202;50.866;12.750;2023-01-19T01:15:49;-4.50;94.90
4376;DHT22;2202;50.866;12.750;2023-01-19T01:18:17;-4.40;95.10
4376;DHT22;2202;50.866;12.750;2023-01-19T01:20:43;-4.40;94.80
4376;DHT22;2202;50.866;12.750;2023-01-19T01:23:10;-4.30;94.90
4376;DHT22;2202;50.866;12.750;2023-01-19T01:25:37;-4.30;94.70
4376;DHT22;2202;50.866;12.750;2023-01-19T01:28:05;-4.20;94.80
4376;DHT22;2202;50.866;12.750;2023-01-19T01:30:34;-4.20;94.70
4376;DHT22;2202;50.866;12.750;2023-01-19T01:33:05;-4.20;94.60
4376;DHT22;2202;50.866;12.750;2023-01-19T01:35:32;-4.20;94.60
4376;DHT22;2202;50.866;12.750;2023-01-19T01:38:00;-4.20;94.50
4376;DHT22;2202;50.866;12.750;2023-01-19T01:40:26;-4.20;94.30
4376;DHT22;2202;50.866;12.750;2023-01-19T01:42:53;-4.30;94.00
4376;DHT22;2202;50.866;12.750;2023-01-19T01:45:30;-4.50;93.70
4376;DHT22;2202;50.866;12.750;2023-01-19T01:48:05;-4.70;94.30
4376;DHT22;2202;50.866;12.750;2023-01-19T01:50:35;-4.60;94.50
4376;DHT22;2202;50.866;12.750;2023-01-19T01:53:10;-4.60;94.40
4376;DHT22;2202;50.866;12.750;2023-01-19T01:55:41;-4.60;94.60
4376;DHT22;2202;50.866;12.750;2023-01-19T01:58:10;-4.50;94.50
4376;DHT22;2202;50.866;12.750;2023-01-19T02:00:38;-4.40;94.30
4376;DHT22;2202;50.866;12.750;2023-01-19T02:03:21;-4.40;94.10
4376;DHT22;2202;50.866;12.750;2023-01-19T02:05:49;-4.40;94.10
4376;DHT22;2202;50.866;12.750;2023-01-19T02:08:18;-4.50;93.90
4376;DHT22;2202;50.866;12.750;2023-01-19T02:11:03;-4.70;93.90
4376;DHT22;2202;50.866;12.750;2023-01-19T02:13:47;-4.80;94.10
4376;DHT22;2202;50.866;12.750;2023-01-19T02:16:15;-4.80;94.30
4376;DHT22;2202;50.866;12.750;2023-01-19T02:18:43;-4.80;94.50
4376;DHT22;2202;50.866;12.750;2023-01-19T02:21:13;-4.80;94.40
4376;DHT22;2202;50.866;12.750;2023-01-19T02:23:47;-4.80;94.30
4376;DHT22;2202;50.866;12.750;2023-01-19T02:26:17;-4.80;94.30
4376;DHT22;2202;50.866;12.750;2023-01-19T02:28:48;-4.90;94.40
4376;DHT22;2202;50.866;12.750;2023-01-19T02:31:16;-4.90;94.50
4376;DHT22;2202;50.866;12.750;2023-01-19T02:33:43;-4.90;94.60
4376;DHT22;2202;50.866;12.750;2023-01-19T02:36:12;-4.80;94.60
4376;DHT22;2202;50.866;12.750;2023-01-19T02:38:41;-4.80;94.40
4376;DHT22;2202;50.866;12.750;2023-01-19T02:41:13;-4.80;94.30
4376;DHT22;2202;50.866;12.750;2023-01-19T02:43:42;-4.70;94.30
4376;DHT22;2202;50.866;12.750;2023-01-19T02:46:09;-4.70;93.90
4376;DHT22;2202;50.866;12.750;2023-01-19T02:48:36;-4.70;93.90
4376;DHT22;2202;50.866;12.750;2023-01-19T02:51:11;-4.70;93.80
4376;DHT22;2202;50.866;12.750;2023-01-19T02:54:01;-4.70;93.70
4376;DHT22;2202;50.866;12.750;2023-01-19T02:56:52;-4.70;93.40
4376;DHT22;2202;50.866;12.750;2023-01-19T02:59:32;-4.70;93.10
4376;DHT22;2202;50.866;12.750;2023-01-19T03:02:13;-4.70;93.10
4376;DHT22;2202;50.866;12.750;2023-01-19T03:04:54;-4.80;92.90
4376;DHT22;2202;50.866;12.750;2023-01-19T03:07:33;-4.90;92.80
4376;DHT22;2202;50.866;12.750;2023-01-19T03:10:06;-5.00;93.00
4376;DHT22;2202;50.866;12.750;2023-01-19T03:12:39;-5.00;93.20
4376;DHT22;2202;50.866;12.750;2023-01-19T03:15:13;-4.90;93.30
4376;DHT22;2202;50.866;12.750;2023-01-19T03:17:44;-4.80;93.40
4376;DHT22;2202;50.866;12.750;2023-01-19T03:20:13;-4.80;93.00
4376;DHT22;2202;50.866;12.750;2023-01-19T03:22:42;-4.80;92.70
4376;DHT22;2202;50.866;12.750;2023-01-19T03:25:10;-4.90;92.60
4376;DHT22;2202;50.866;12.750;2023-01-19T03:27:41;-5.00;92.40
4376;DHT22;2202;50.866;12.750;2023-01-19T03:30:13;-5.10;92.30
4376;DHT22;2202;50.866;12.750;2023-01-19T03:32:48;-5.20;92.90
4376;DHT22;2202;50.866;12.750;2023-01-19T03:35:20;-5.20;93.30
4376;DHT22;2202;50.866;12.750;2023-01-19T03:37:49;-5.10;93.30
4376;DHT22;2202;50.866;12.750;2023-01-19T03:40:18;-5.10;93.30
4376;DHT22;2202;50.866;12.750;2023-01-19T03:42:46;-5.10;93.30
4376;DHT22;2202;50.866;12.750;2023-01-19T03:45:16;-5.20;93.00
4376;DHT22;2202;50.866;12.750;2023-01-19T03:47:43;-5.20;93.10
4376;DHT22;2202;50.866;12.750;2023-01-19T03:50:13;-5.20;93.30
4376;DHT22;2202;50.866;12.750;2023-01-19T03:52:45;-5.10;93.40
4376;DHT22;2202;50.866;12.750;2023-01-19T03:55:12;-5.10;93.20
4376;DHT22;2202;50.866;12.750;2023-01-19T03:57:39;-5.10;93.10
4376;DHT22;2202;50.866;12.750;2023-01-19T04:00:08;-5.00;93.40
4376;DHT22;2202;50.866;12.750;2023-01-19T04:02:36;-4.90;93.20
4376;DHT22;2202;50.866;12.750;2023-01-19T04:05:03;-4.80;93.10
4376;DHT22;2202;50.866;12.750;2023-01-19T04:07:29;-4.80;92.70
4376;DHT22;2202;50.866;12.750;2023-01-19T04:09:56;-4.80;92.40
4376;DHT22;2202;50.866;12.750;2023-01-19T04:12:23;-4.80;92.30
4376;DHT22;2202;50.866;12.750;2023-01-19T04:14:50;-4.80;92.50
4376;DHT22;2202;50.866;12.750;2023-01-19T04:17:18;-4.80;92.40
4376;DHT22;2202;50.866;12.750;2023-01-19T04:19:45;-4.70;92.30
4376;DHT22;2202;50.866;12.750;2023-01-19T04:22:11;-4.80;92.10
4376;DHT22;2202;50.866;12.750;2023-01-19T04:24:38;-4.80;92.40
4376;DHT22;2202;50.866;12.750;2023-01-19T04:27:05;-4.80;92.70
4376;DHT22;2202;50.866;12.750;2023-01-19T04:29:32;-4.80;92.90
4376;DHT22;2202;50.866;12.750;2023-01-19T04:31:59;-4.70;92.90
4376;DHT22;2202;50.866;12.750;2023-01-19T04:34:27;-4.70;92.90
4376;DHT22;2202;50.866;12.750;2023-01-19T04:36:54;-4.60;92.90
4376;DHT22;2202;50.866;12.750;2023-01-19T04:39:21;-4.60;92.80
4376;DHT22;2202;50.866;12.750;2023-01-19T04:41:48;-4.50;92.90
4376;DHT22;2202;50.866;12.750;2023-01-19T04:44:16;-4.40;92.90
4376;DHT22;2202;50.866;12.750;2023-01-19T04:46:43;-4.40;92.50
4376;DHT22;2202;50.866;12.750;2023-01-19T04:49:10;-4.40;92.30
4376;DHT22;2202;50.866;12.750;2023-01-19T04:51:38;-4.40;92.40
4376;DHT22;2202;50.866;12.750;2023-01-19T04:54:05;-4.50;92.10
4376;DHT22;2202;50.866;12.750;2023-01-19T04:56:33;-4.40;92.60
4376;DHT22;2202;50.866;12.750;2023-01-19T04:59:00;-4.30;92.80
4376;DHT22;2202;50.866;12.750;2023-01-19T05:01:27;-4.30;92.50
4376;DHT22;2202;50.866;12.750;2023-01-19T05:03:54;-4.30;92.70
4376;DHT22;2202;50.866;12.750;2023-01-19T05:06:23;-4.30;92.70
4376;DHT22;2202;50.866;12.750;2023-01-19T05:08:51;-4.20;92.80
4376;DHT22;2202;50.866;12.750;2023-01-19T05:11:19;-4.20;92.80
4376;DHT22;2202;50.866;12.750;2023-01-19T05:13:46;-4.20;92.80
4376;DHT22;2202;50.866;12.750;2023-01-19T05:16:12;-4.10;92.70
4376;DHT22;2202;50.866;12.750;2023-01-19T05:18:39;-4.10;92.70
4376;DHT22;2202;50.866;12.750;2023-01-19T05:21:06;-4.10;92.70
4376;DHT22;2202;50.866;12.750;2023-01-19T05:23:33;-4.10;92.40
4376;DHT22;2202;50.866;12.750;2023-01-19T05:26:02;-4.10;92.30
4376;DHT22;2202;50.866;12.750;2023-01-19T05:28:30;-4.20;92.30
4376;DHT22;2202;50.866;12.750;2023-01-19T05:30:57;-4.20;92.50
4376;DHT22;2202;50.866;12.750;2023-01-19T05:33:24;-4.20;92.70
4376;DHT22;2202;50.866;12.750;2023-01-19T05:35:53;-4.20;92.40
4376;DHT22;2202;50.866;12.750;2023-01-19T05:38:20;-4.10;92.60
4376;DHT22;2202;50.866;12.750;2023-01-19T05:40:47;-4.10;92.50
4376;DHT22;2202;50.866;12.750;2023-01-19T05:43:16;-4.10;92.50
4376;DHT22;2202;50.866;12.750;2023-01-19T05:45:43;-4.10;92.50
4376;DHT22;2202;50.866;12.750;2023-01-19T05:48:10;-4.20;92.40
4376;DHT22;2202;50.866;12.750;2023-01-19T05:50:36;-4.20;92.30
4376;DHT22;2202;50.866;12.750;2023-01-19T05:53:03;-4.30;92.40
4376;DHT22;2202;50.866;12.750;2023-01-19T05:55:30;-4.30;92.40
4376;DHT22;2202;50.866;12.750;2023-01-19T05:57:57;-4.40;92.30
4376;DHT22;2202;50.866;12.750;2023-01-19T06:00:25;-4.40;92.60
4376;DHT22;2202;50.866;12.750;2023-01-19T06:02:53;-4.40;92.50
4376;DHT22;2202;50.866;12.750;2023-01-19T06:05:20;-4.50;92.70
4376;DHT22;2202;50.866;12.750;2023-01-19T06:07:47;-4.40;92.90
4376;DHT22;2202;50.866;12.750;2023-01-19T06:10:14;-4.50;92.90
4376;DHT22;2202;50.866;12.750;2023-01-19T06:12:42;-4.40;93.10
4376;DHT22;2202;50.866;12.750;2023-01-19T06:15:09;-4.30;93.30
4376;DHT22;2202;50.866;12.750;2023-01-19T06:17:38;-4.20;93.00
4376;DHT22;2202;50.866;12.750;2023-01-19T06:20:06;-4.10;92.80
4376;DHT22;2202;50.866;12.750;2023-01-19T06:22:33;-4.10;92.70
4376;DHT22;2202;50.866;12.750;2023-01-19T06:25:00;-4.10;92.80
4376;DHT22;2202;50.866;12.750;2023-01-19T06:27:27;-4.00;92.90
4376;DHT22;2202;50.866;12.750;2023-01-19T06:29:54;-3.90;92.90
4376;DHT22;2202;50.866;12.750;2023-01-19T06:32:21;-3.80;92.50
4376;DHT22;2202;50.866;12.750;2023-01-19T06:34:49;-3.70;92.40
4376;DHT22;2202;50.866;12.750;2023-01-19T06:37:16;-3.70;92.40
4376;DHT22;2202;50.866;12.750;2023-01-19T06:39:43;-3.70;92.40
4376;DHT22;2202;50.866;12.750;2023-01-19T06:42:10;-3.60;92.30
4376;DHT22;2202;50.866;12.750;2023-01-19T06:44:37;-3.60;92.20
4376;DHT22;2202;50.866;12.750;2023-01-19T06:47:07;-3.50;92.20
4376;DHT22;2202;50.866;12.750;2023-01-19T06:49:34;-3.50;92.30
4376;DHT22;2202;50.866;12.750;2023-01-19T06:52:03;-3.50;92.20
4376;DHT22;2202;50.866;12.750;2023-01-19T06:54:30;-3.50;92.00
4376;DHT22;2202;50.866;12.750;2023-01-19T06:56:56;-3.50;91.90
4376;DHT22;2202;50.866;12.750;2023-01-19T06:59:23;-3.50;91.80
4376;DHT22;2202;50.866;12.750;2023-01-19T07:01:50;-3.40;91.70
4376;DHT22;2202;50.866;12.750;2023-01-19T07:04:17;-3.40;91.70
4376;DHT22;2202;50.866;12.750;2023-01-19T07:06:44;-3.40;91.80
4376;DHT22;2202;50.866;12.750;2023-01-19T07:09:12;-3.40;91.60
4376;DHT22;2202;50.866;12.750;2023-01-19T07:11:41;-3.40;91.60
4376;DHT22;2202;50.866;12.750;2023-01-19T07:14:08;-3.40;91.50
4376;DHT22;2202;50.866;12.750;2023-01-19T07:16:35;-3.50;91.50
4376;DHT22;2202;50.866;12.750;2023-01-19T07:19:02;-3.50;91.50
4376;DHT22;2202;50.866;12.750;2023-01-19T07:21:29;-3.50;91.40
4376;DHT22;2202;50.866;12.750;2023-01-19T07:23:56;-3.50;91.60
4376;DHT22;2202;50.866;12.750;2023-01-19T07:26:24;-3.50;91.60
4376;DHT22;2202;50.866;12.750;2023-01-19T07:28:52;-3.50;91.60
4376;DHT22;2202;50.866;12.750;2023-01-19T07:31:19;-3.40;91.60
4376;DHT22;2202;50.866;12.750;2023-01-19T07:33:46;-3.40;91.70
4376;DHT22;2202;50.866;12.750;2023-01-19T07:36:13;-3.50;91.80
4376;DHT22;2202;50.866;12.750;2023-01-19T07:38:40;-3.50;91.80
4376;DHT22;2202;50.866;12.750;2023-01-19T07:41:08;-3.50;92.10
4376;DHT22;2202;50.866;12.750;2023-01-19T07:43:37;-3.50;91.90
4376;DHT22;2202;50.866;12.750;2023-01-19T07:46:05;-3.50;92.30
4376;DHT22;2202;50.866;12.750;2023-01-19T07:48:32;-3.50;92.00
4376;DHT22;2202;50.866;12.750;2023-01-19T07:51:00;-3.50;92.50
4376;DHT22;2202;50.866;12.750;2023-01-19T07:53:30;-3.50;92.60
4376;DHT22;2202;50.866;12.750;2023-01-19T07:55:57;-3.50;92.60
4376;DHT22;2202;50.866;12.750;2023-01-19T07:58:24;-3.50;92.70
4376;DHT22;2202;50.866;12.750;2023-01-19T08:00:52;-3.50;92.80
4376;DHT22;2202;50.866;12.750;2023-01-19T08:03:19;-3.50;92.80
4376;DHT22;2202;50.866;12.750;2023-01-19T08:05:51;-3.50;92.80
4376;DHT22;2202;50.866;12.750;2023-01-19T08:08:18;-3.40;93.00
4376;DHT22;2202;50.866;12.750;2023-01-19T08:10:48;-3.30;92.70
4376;DHT22;2202;50.866;12.750;2023-01-19T08:13:15;-3.10;92.30
4376;DHT22;2202;50.866;12.750;2023-01-19T08:15:43;-3.10;91.50
4376;DHT22;2202;50.866;12.750;2023-01-19T08:18:11;-3.00;91.50
4376;DHT22;2202;50.866;12.750;2023-01-19T08:20:40;-2.80;91.50
4376;DHT22;2202;50.866;12.750;2023-01-19T08:23:07;-2.60;90.70
4376;DHT22;2202;50.866;12.750;2023-01-19T08:25:35;-2.60;90.30
4376;DHT22;2202;50.866;12.750;2023-01-19T08:28:03;-2.60;90.30
4376;DHT22;2202;50.866;12.750;2023-01-19T08:30:30;-2.50;90.20
4376;DHT22;2202;50.866;12.750;2023-01-19T08:32:58;-2.50;89.80
4376;DHT22;2202;50.866;12.750;2023-01-19T08:35:31;-2.50;89.80
4376;DHT22;2202;50.866;12.750;2023-01-19T08:37:58;-2.50;90.20
4376;DHT22;2202;50.866;12.750;2023-01-19T08:40:26;-2.50;90.50
4376;DHT22;2202;50.866;12.750;2023-01-19T08:42:57;-2.60;90.60
4376;DHT22;2202;50.866;12.750;2023-01-19T08:45:27;-2.50;90.70
4376;DHT22;2202;50.866;12.750;2023-01-19T08:47:55;-2.40;90.60
4376;DHT22;2202;50.866;12.750;2023-01-19T08:50:23;-2.40;90.60
4376;DHT22;2202;50.866;12.750;2023-01-19T08:52:51;-2.40;90.30
4376;DHT22;2202;50.866;12.750;2023-01-19T08:55:21;-2.30;90.60
4376;DHT22;2202;50.866;12.750;2023-01-19T08:57:50;-2.30;90.50
4376;DHT22;2202;50.866;12.750;2023-01-19T09:00:17;-2.30;90.50
4376;DHT22;2202;50.866;12.750;2023-01-19T09:02:45;-2.30;90.30
4376;DHT22;2202;50.866;12.750;2023-01-19T09:05:12;-2.30;90.50
4376;DHT22;2202;50.866;12.750;2023-01-19T09:07:39;-2.40;90.70
4376;DHT22;2202;50.866;12.750;2023-01-19T09:10:09;-2.50;91.00
4376;DHT22;2202;50.866;12.750;2023-01-19T09:12:36;-2.50;91.30
4376;DHT22;2202;50.866;12.750;2023-01-19T09:15:03;-2.30;91.40
4376;DHT22;2202;50.866;12.750;2023-01-19T09:17:30;-2.30;91.40
4376;DHT22;2202;50.866;12.750;2023-01-19T09:19:56;-2.20;91.30
4376;DHT22;2202;50.866;12.750;2023-01-19T09:22:24;-2.10;90.90
4376;DHT22;2202;50.866;12.750;2023-01-19T09:24:51;-2.00;90.70
4376;DHT22;2202;50.866;12.750;2023-01-19T09:27:19;-1.80;90.60
4376;DHT22;2202;50.866;12.750;2023-01-19T09:29:46;-1.90;90.20
4376;DHT22;2202;50.866;12.750;2023-01-19T09:32:17;-1.80;90.10
4376;DHT22;2202;50.866;12.750;2023-01-19T09:34:44;-1.80;89.80
4376;DHT22;2202;50.866;12.750;2023-01-19T09:37:11;-1.60;90.20
4376;DHT22;2202;50.866;12.750;2023-01-19T09:39:38;-1.40;90.00
4376;DHT22;2202;50.866;12.750;2023-01-19T09:42:12;-1.40;87.60
4376;DHT22;2202;50.866;12.750;2023-01-19T09:44:46;-1.40;88.40
4376;DHT22;2202;50.866;12.750;2023-01-19T09:47:18;-1.40;88.60
4376;DHT22;2202;50.866;12.750;2023-01-19T09:49:50;-1.50;89.00
4376;DHT22;2202;50.866;12.750;2023-01-19T09:52:17;-1.30;88.60
4376;DHT22;2202;50.866;12.750;2023-01-19T09:54:51;-1.30;88.40
4376;DHT22;2202;50.866;12.750;2023-01-19T09:57:20;-1.40;89.00
4376;DHT22;2202;50.866;12.750;2023-01-19T09:59:48;-1.50;89.60
4376;DHT22;2202;50.866;12.750;2023-01-19T10:02:27;-1.50;90.10
4376;DHT22;2202;50.866;12.750;2023-01-19T10:04:59;-1.50;90.40
4376;DHT22;2202;50.866;12.750;2023-01-19T10:07:37;-1.50;90.20
4376;DHT22;2202;50.866;12.750;2023-01-19T10:10:17;-1.50;90.60
4376;DHT22;2202;50.866;12.750;2023-01-19T10:12:56;-1.50;90.60
4376;DHT22;2202;50.866;12.750;2023-01-19T10:15:35;-1.40;90.70
4376;DHT22;2202;50.866;12.750;2023-01-19T10:18:12;-1.50;90.70
4376;DHT22;2202;50.866;12.750;2023-01-19T10:20:42;-1.40;90.50
4376;DHT22;2202;50.866;12.750;2023-01-19T10:23:34;-1.30;90.60
4376;DHT22;2202;50.866;12.750;2023-01-19T10:26:07;-1.30;90.30
4376;DHT22;2202;50.866;12.750;2023-01-19T10:28:35;-1.20;90.50
4376;DHT22;2202;50.866;12.750;2023-01-19T10:31:05;-1.10;90.00
4376;DHT22;2202;50.866;12.750;2023-01-19T10:33:34;-1.10;90.20
4376;DHT22;2202;50.866;12.750;2023-01-19T10:36:03;-0.90;90.20
4376;DHT22;2202;50.866;12.750;2023-01-19T10:38:32;-0.80;88.20
4376;DHT22;2202;50.866;12.750;2023-01-19T10:41:02;-0.70;88.60
4376;DHT22;2202;50.866;12.750;2023-01-19T10:43:38;-0.70;88.20
4376;DHT22;2202;50.866;12.750;2023-01-19T10:46:15;-0.80;88.20
4376;DHT22;2202;50.866;12.750;2023-01-19T10:48:43;-0.70;88.40
4376;DHT22;2202;50.866;12.750;2023-01-19T10:51:13;-0.60;87.80
4376;DHT22;2202;50.866;12.750;2023-01-19T10:53:42;-0.50;87.40
4376;DHT22;2202;50.866;12.750;2023-01-19T10:56:16;-0.50;87.80
4376;DHT22;2202;50.866;12.750;2023-01-19T10:58:46;-0.50;87.00
4376;DHT22;2202;50.866;12.750;2023-01-19T11:01:17;-0.60;86.60
4376;DHT22;2202;50.866;12.750;2023-01-19T11:03:44;-0.70;87.80
4376;DHT22;2202;50.866;12.750;2023-01-19T11:06:25;-0.50;88.20
4376;DHT22;2202;50.866;12.750;2023-01-19T11:09:08;-0.40;87.20
4376;DHT22;2202;50.866;12.750;2023-01-19T11:11:41;-0.30;85.40
4376;DHT22;2202;50.866;12.750;2023-01-19T11:14:11;-0.40;85.60
4376;DHT22;2202;50.866;12.750;2023-01-19T11:16:43;-0.60;87.60
4376;DHT22;2202;50.866;12.750;2023-01-19T11:19:18;-0.60;87.40
4376;DHT22;2202;50.866;12.750;2023-01-19T11:21:46;-0.70;87.80
4376;DHT22;2202;50.866;12.750;2023-01-19T11:24:13;-0.80;88.00
4376;DHT22;2202;50.866;12.750;2023-01-19T11:26:43;-0.70;88.00
4376;DHT22;2202;50.866;12.750;2023-01-19T11:29:16;-0.70;88.00
4376;DHT22;2202;50.866;12.750;2023-01-19T11:31:46;-0.60;87.20
4376;DHT22;2202;50.866;12.750;2023-01-19T11:34:25;-0.50;87.60
4376;DHT22;2202;50.866;12.750;2023-01-19T11:36:57;-0.50;87.00
4376;DHT22;2202;50.866;12.750;2023-01-19T11:39:26;-0.40;85.40
4376;DHT22;2202;50.866;12.750;2023-01-19T11:41:55;-0.40;85.60
4376;DHT22;2202;50.866;12.750;2023-01-19T11:44:25;-0.30;85.80
4376;DHT22;2202;50.866;12.750;2023-01-19T11:46:56;-0.20;85.60
4376;DHT22;2202;50.866;12.750;2023-01-19T11:49:29;-0.30;86.20
4376;DHT22;2202;50.866;12.750;2023-01-19T11:52:03;-0.40;86.00
4376;DHT22;2202;50.866;12.750;2023-01-19T11:54:34;-0.40;86.40
4376;DHT22;2202;50.866;12.750;2023-01-19T11:57:05;-0.30;86.60
4376;DHT22;2202;50.866;12.750;2023-01-19T11:59:35;-0.40;86.40
4376;DHT22;2202;50.866;12.750;2023-01-19T12:02:14;-0.40;86.20
4376;DHT22;2202;50.866;12.750;2023-01-19T12:04:44;-0.50;86.20
4376;DHT22;2202;50.866;12.750;2023-01-19T12:07:13;-0.50;86.80
4376;DHT22;2202;50.866;12.750;2023-01-19T12:09:45;-0.40;86.40
4376;DHT22;2202;50.866;12.750;2023-01-19T12:12:23;-0.50;86.20
4376;DHT22;2202;50.866;12.750;2023-01-19T12:14:55;-0.70;87.80
4376;DHT22;2202;50.866;12.750;2023-01-19T12:17:26;-0.70;86.80
4376;DHT22;2202;50.866;12.750;2023-01-19T12:19:58;-0.80;87.40
4376;DHT22;2202;50.866;12.750;2023-01-19T12:22:26;-0.70;87.40
4376;DHT22;2202;50.866;12.750;2023-01-19T12:24:58;-0.70;86.80
4376;DHT22;2202;50.866;12.750;2023-01-19T12:27:37;-0.80;87.20
4376;DHT22;2202;50.866;12.750;2023-01-19T12:30:09;-0.90;88.60
4376;DHT22;2202;50.866;12.750;2023-01-19T12:32:43;-0.80;89.80
4376;DHT22;2202;50.866;12.750;2023-01-19T12:38:23;-0.60;87.60
4376;DHT22;2202;50.866;12.750;2023-01-19T12:41:20;-0.70;87.60
4376;DHT22;2202;50.866;12.750;2023-01-19T12:44:21;-0.80;87.40
4376;DHT22;2202;50.866;12.750;2023-01-19T12:46:51;-1.00;88.60
4376;DHT22;2202;50.866;12.750;2023-01-19T12:49:26;-0.90;89.20
4376;DHT22;2202;50.866;12.750;2023-01-19T12:52:09;-1.00;89.20
4376;DHT22;2202;50.866;12.750;2023-01-19T12:54:38;-0.90;88.20
4376;DHT22;2202;50.866;12.750;2023-01-19T12:57:13;-0.70;87.20
4376;DHT22;2202;50.866;12.750;2023-01-19T12:59:43;-0.60;86.60
4376;DHT22;2202;50.866;12.750;2023-01-19T13:02:41;-0.70;85.80
4376;DHT22;2202;50.866;12.750;2023-01-19T13:05:17;-0.80;85.20
4376;DHT22;2202;50.866;12.750;2023-01-19T13:08:13;-1.00;87.40
4376;DHT22;2202;50.866;12.750;2023-01-19T13:16:59;-1.20;89.80
4376;DHT22;2202;50.866;12.750;2023-01-19T13:19:46;-1.20;89.20
4376;DHT22;2202;50.866;12.750;2023-01-19T13:25:32;-1.00;87.00
4376;DHT22;2202;50.866;12.750;2023-01-19T13:28:01;-1.10;87.80
4376;DHT22;2202;50.866;12.750;2023-01-19T13:30:33;-1.10;87.80
4376;DHT22;2202;50.866;12.750;2023-01-19T13:33:05;-1.10;88.40
4376;DHT22;2202;50.866;12.750;2023-01-19T13:35:32;-0.90;87.40
4376;DHT22;2202;50.866;12.750;2023-01-19T13:37:59;-1.00;87.80
4376;DHT22;2202;50.866;12.750;2023-01-19T13:40:35;-1.00;87.40
4376;DHT22;2202;50.866;12.750;2023-01-19T13:43:02;-1.00;88.00
4376;DHT22;2202;50.866;12.750;2023-01-19T13:45:34;-1.10;87.40
4376;DHT22;2202;50.866;12.750;2023-01-19T13:48:05;-1.20;88.40
4376;DHT22;2202;50.866;12.750;2023-01-19T13:50:35;-1.20;88.80
4376;DHT22;2202;50.866;12.750;2023-01-19T13:53:16;-1.10;89.00
4376;DHT22;2202;50.866;12.750;2023-01-19T13:55:44;-1.20;88.80
4376;DHT22;2202;50.866;12.750;2023-01-19T13:58:19;-1.30;89.20
4376;DHT22;2202;50.866;12.750;2023-01-19T14:00:46;-1.30;89.20
4376;DHT22;2202;50.866;12.750;2023-01-19T14:03:16;-1.40;89.40
4376;DHT22;2202;50.866;12.750;2023-01-19T14:05:49;-1.40;90.00
4376;DHT22;2202;50.866;12.750;2023-01-19T14:08:16;-1.30;90.00
4376;DHT22;2202;50.866;12.750;2023-01-19T14:10:46;-1.30;89.00
4376;DHT22;2202;50.866;12.750;2023-01-19T14:13:18;-1.40;88.60
4376;DHT22;2202;50.866;12.750;2023-01-19T14:15:46;-1.40;89.40
4376;DHT22;2202;50.866;12.750;2023-01-19T14:18:24;-1.30;88.80
4376;DHT22;2202;50.866;12.750;2023-01-19T14:20:57;-1.30;88.60
4376;DHT22;2202;50.866;12.750;2023-01-19T14:23:40;-1.40;89.00
4376;DHT22;2202;50.866;12.750;2023-01-19T14:29:25;-1.30;88.20
4376;DHT22;2202;50.866;12.750;2023-01-19T14:32:10;-1.30;88.20
4376;DHT22;2202;50.866;12.750;2023-01-19T14:34:39;-1.30;88.00
4376;DHT22;2202;50.866;12.750;2023-01-19T14:37:17;-1.30;88.80
4376;DHT22;2202;50.866;12.750;2023-01-19T14:39:47;-1.30;88.60
4376;DHT22;2202;50.866;12.750;2023-01-19T14:42:18;-1.40;89.00
4376;DHT22;2202;50.866;12.750;2023-01-19T14:44:49;-1.30;88.60
4376;DHT22;2202;50.866;12.750;2023-01-19T14:47:35;-1.40;89.60
4376;DHT22;2202;50.866;12.750;2023-01-19T14:50:07;-1.50;90.00
4376;DHT22;2202;50.866;12.750;2023-01-19T14:52:37;-1.50;90.10
4376;DHT22;2202;50.866;12.750;2023-01-19T14:55:07;-1.30;89.60
4376;DHT22;2202;50.866;12.750;2023-01-19T14:57:42;-1.40;89.20
4376;DHT22;2202;50.866;12.750;2023-01-19T15:00:15;-1.30;89.40
4376;DHT22;2202;50.866;12.750;2023-01-19T15:02:43;-1.20;88.80
4376;DHT22;2202;50.866;12.750;2023-01-19T15:05:10;-1.20;89.40
4376;DHT22;2202;50.866;12.750;2023-01-19T15:07:38;-1.20;89.20
4376;DHT22;2202;50.866;12.750;2023-01-19T15:10:11;-1.20;90.00
4376;DHT22;2202;50.866;12.750;2023-01-19T15:12:39;-1.10;89.20
4376;DHT22;2202;50.866;12.750;2023-01-19T15:15:14;-1.10;89.20
4376;DHT22;2202;50.866;12.750;2023-01-19T15:17:41;-1.10;88.20
4376;DHT22;2202;50.866;12.750;2023-01-19T15:20:13;-1.10;89.00
4376;DHT22;2202;50.866;12.750;2023-01-19T15:22:40;-1.10;89.00
4376;DHT22;2202;50.866;12.750;2023-01-19T15:25:11;-1.10;88.40
4376;DHT22;2202;50.866;12.750;2023-01-19T15:27:38;-1.00;88.40
4376;DHT22;2202;50.866;12.750;2023-01-19T15:30:13;-1.10;88.20
4376;DHT22;2202;50.866;12.750;2023-01-19T15:32:41;-1.10;88.80
4376;DHT22;2202;50.866;12.750;2023-01-19T15:35:13;-1.10;88.80
4376;DHT22;2202;50.866;12.750;2023-01-19T15:37:40;-1.20;90.00
4376;DHT22;2202;50.866;12.750;2023-01-19T15:40:08;-1.20;89.80
4376;DHT22;2202;50.866;12.750;2023-01-19T15:42:35;-1.20;89.20
4376;DHT22;2202;50.866;12.750;2023-01-19T15:45:08;-1.10;89.00
4376;DHT22;2202;50.866;12.750;2023-01-19T15:47:45;-1.20;89.00
4376;DHT22;2202;50.866;12.750;2023-01-19T15:50:11;-1.20;89.00
4376;DHT22;2202;50.866;12.750;2023-01-19T15:52:38;-1.30;89.40
4376;DHT22;2202;50.866;12.750;2023-01-19T15:55:07;-1.20;89.60
4376;DHT22;2202;50.866;12.750;2023-01-19T15:57:35;-1.20;90.00
4376;DHT22;2202;50.866;12.750;2023-01-19T16:00:02;-1.20;90.30
4376;DHT22;2202;50.866;12.750;2023-01-19T16:02:29;-1.10;90.20
4376;DHT22;2202;50.866;12.750;2023-01-19T16:04:57;-1.10;89.80
4376;DHT22;2202;50.866;12.750;2023-01-19T16:07:24;-1.00;89.40
4376;DHT22;2202;50.866;12.750;2023-01-19T16:09:51;-0.90;88.20
4376;DHT22;2202;50.866;12.750;2023-01-19T16:12:18;-0.90;87.40
4376;DHT22;2202;50.866;12.750;2023-01-19T16:14:44;-0.90;87.80
4376;DHT22;2202;50.866;12.750;2023-01-19T16:17:11;-0.90;88.00
4376;DHT22;2202;50.866;12.750;2023-01-19T16:19:38;-0.90;88.00
4376;DHT22;2202;50.866;12.750;2023-01-19T16:22:07;-0.90;87.80